createdAt,value
2018-06-04T00:02:18.659Z,27.47
2018-06-04T00:04:46.951Z,29.10
2018-06-04T00:07:15.224Z,30.43
2018-06-04T00:09:43.515Z,29.40
2018-06-04T00:12:11.795Z,28.23
2018-06-04T00:14:40.091Z,27.83
2018-06-04T00:17:08.132Z,25.03
2018-06-04T00:19:36.431Z,28.40
2018-06-04T00:22:04.706Z,34.57
2018-06-04T00:24:33.005Z,34.20
2018-06-04T00:27:02.082Z,32.20
2018-06-04T00:29:30.440Z,31.50
2018-06-04T00:31:58.725Z,31.53
2018-06-04T00:34:27.017Z,32.10
2018-06-04T00:36:55.299Z,35.13
2018-06-04T00:39:23.611Z,35.40
2018-06-04T00:41:51.879Z,33.90
2018-06-04T00:44:20.150Z,31.07
2018-06-04T00:46:48.448Z,31.80
2018-06-04T00:49:16.719Z,30.47
2018-06-04T00:51:45.007Z,29.93
2018-06-04T00:54:13.278Z,28.07
2018-06-04T00:56:41.571Z,30.73
2018-06-04T00:59:09.863Z,29.93
2018-06-04T01:01:38.158Z,32.00
2018-06-04T01:04:06.441Z,31.33
2018-06-04T01:06:34.727Z,30.40
2018-06-04T01:09:03.089Z,29.80
2018-06-04T01:11:31.383Z,28.47
2018-06-04T01:13:59.653Z,29.17
2018-06-04T01:16:27.939Z,30.40
2018-06-04T01:18:56.215Z,33.80
2018-06-04T01:21:24.503Z,33.33
2018-06-04T01:23:52.807Z,29.57
2018-06-04T01:26:21.107Z,29.90
2018-06-04T01:28:49.393Z,29.33
2018-06-04T01:31:17.687Z,28.73
2018-06-04T01:33:45.956Z,32.10
2018-06-04T01:36:14.243Z,32.20
2018-06-04T01:38:42.619Z,33.10
2018-06-04T01:41:10.906Z,33.67
2018-06-04T01:43:39.169Z,35.80
2018-06-04T01:46:07.451Z,32.67
2018-06-04T01:48:35.713Z,30.07
2018-06-04T01:51:04.001Z,32.90
2018-06-04T01:53:32.270Z,34.57
2018-06-04T01:56:00.609Z,24.80
2018-06-04T01:58:28.907Z,33.03
2018-06-04T02:00:57.210Z,35.40
2018-06-04T02:03:27.105Z,31.00
2018-06-04T02:05:55.381Z,34.57
2018-06-04T02:08:23.702Z,36.50
2018-06-04T02:10:52.173Z,36.97
2018-06-04T02:13:20.478Z,37.53
2018-06-04T02:15:48.754Z,39.67
2018-06-04T02:18:17.025Z,36.50
2018-06-04T02:20:45.300Z,36.77
2018-06-04T02:23:13.595Z,38.27
2018-06-04T02:25:41.870Z,38.57
2018-06-04T02:28:10.166Z,36.70
2018-06-04T02:30:38.442Z,39.60
2018-06-04T02:33:06.744Z,38.50
2018-06-04T02:35:35.007Z,34.80
2018-06-04T02:38:03.299Z,37.77
2018-06-04T02:40:31.579Z,38.60
2018-06-04T02:42:59.892Z,38.10
2018-06-04T02:45:28.200Z,38.40
2018-06-04T02:47:56.510Z,38.40
2018-06-04T02:50:24.807Z,36.03
2018-06-04T02:52:53.102Z,33.57
2018-06-04T02:55:21.373Z,33.90
2018-06-04T02:57:49.711Z,31.43
2018-06-04T03:00:17.987Z,32.13
2018-06-04T03:02:46.279Z,30.63
2018-06-04T03:05:14.551Z,29.50
2018-06-04T03:07:42.831Z,30.03
2018-06-04T03:10:11.101Z,28.20
2018-06-04T03:12:39.395Z,28.20
2018-06-04T03:15:07.658Z,27.90
2018-06-04T03:17:35.994Z,29.90
2018-06-04T03:20:04.271Z,29.07
2018-06-04T03:22:32.549Z,30.23
2018-06-04T03:25:00.820Z,29.20
2018-06-04T03:27:29.081Z,29.17
2018-06-04T03:29:57.366Z,29.27
2018-06-04T03:32:25.635Z,29.53
2018-06-04T03:34:53.984Z,26.63
2018-06-04T03:37:22.226Z,28.40
2018-06-04T03:39:50.517Z,28.80
2018-06-04T03:42:18.788Z,25.67
2018-06-04T03:44:47.086Z,26.27
2018-06-04T03:47:15.350Z,26.00
2018-06-04T03:49:43.642Z,26.50
2018-06-04T03:52:11.953Z,25.67
2018-06-04T03:54:40.252Z,26.20
2018-06-04T03:57:08.524Z,26.33
2018-06-04T03:59:36.833Z,27.37
2018-06-04T04:02:05.107Z,25.63
2018-06-04T04:04:33.398Z,28.20
2018-06-04T04:07:01.667Z,29.00
2018-06-04T04:09:29.970Z,28.40
2018-06-04T04:11:58.244Z,25.07
2018-06-04T04:14:26.534Z,25.50
2018-06-04T04:16:54.798Z,24.00
2018-06-04T04:19:23.118Z,23.97
2018-06-04T04:21:51.375Z,21.80
2018-06-04T04:24:20.066Z,22.97
2018-06-04T04:26:48.090Z,23.37
2018-06-04T04:29:16.202Z,24.30
2018-06-04T04:31:44.235Z,22.17
2018-06-04T04:34:12.281Z,22.50
2018-06-04T04:36:40.317Z,22.93
2018-06-04T04:39:08.706Z,23.20
2018-06-04T04:41:36.757Z,23.63
2018-06-04T04:44:04.837Z,24.80
2018-06-04T04:46:32.881Z,24.50
2018-06-04T04:49:00.952Z,25.30
2018-06-04T04:51:28.981Z,24.10
2018-06-04T04:53:57.015Z,23.80
2018-06-04T04:56:25.319Z,22.53
2018-06-04T04:58:53.665Z,23.60
2018-06-04T05:01:21.954Z,23.00
2018-06-04T05:03:50.234Z,25.80
2018-06-04T05:06:18.538Z,24.53
2018-06-04T05:08:46.798Z,25.37
2018-06-04T05:11:15.110Z,25.30
2018-06-04T05:13:43.416Z,24.70
2018-06-04T05:16:11.718Z,25.10
2018-06-04T05:18:39.996Z,25.00
2018-06-04T05:21:08.311Z,24.97
2018-06-04T05:23:36.574Z,24.90
2018-06-04T05:26:04.933Z,25.27
2018-06-04T05:28:33.223Z,25.93
2018-06-04T05:31:01.511Z,25.93
2018-06-04T05:33:29.798Z,24.27
2018-06-04T05:35:58.105Z,22.93
2018-06-04T05:38:26.381Z,23.17
2018-06-04T05:40:54.969Z,22.63
2018-06-04T05:43:23.242Z,24.63
2018-06-04T05:45:51.530Z,21.70
2018-06-04T05:48:19.806Z,22.10
2018-06-04T05:50:48.095Z,20.07
2018-06-04T05:53:16.136Z,20.07
2018-06-04T05:55:44.421Z,18.27
2018-06-04T05:58:12.711Z,19.57
2018-06-04T06:00:41.090Z,18.83
2018-06-04T06:03:09.121Z,18.30
2018-06-04T06:05:37.436Z,17.40
2018-06-04T06:08:05.739Z,17.40
2018-06-04T06:10:34.044Z,18.60
2018-06-04T06:13:02.318Z,16.10
2018-06-04T06:15:30.626Z,16.53
2018-06-04T06:17:58.926Z,16.30
2018-06-04T06:20:26.977Z,15.80
2018-06-04T06:22:55.282Z,16.10
2018-06-04T06:25:23.590Z,15.30
2018-06-04T06:27:51.875Z,15.30
2018-06-04T06:30:20.281Z,14.50
2018-06-04T06:32:48.574Z,14.70
2018-06-04T06:35:16.844Z,13.33
2018-06-04T06:37:45.150Z,14.93
2018-06-04T06:40:13.429Z,13.77
2018-06-04T06:42:41.747Z,12.03
2018-06-04T06:45:10.066Z,13.13
2018-06-04T06:47:38.375Z,12.00
2018-06-04T06:50:06.711Z,13.00
2018-06-04T06:52:34.986Z,13.23
2018-06-04T06:55:03.271Z,12.77
2018-06-04T06:57:31.587Z,12.50
2018-06-04T06:59:59.914Z,12.73
2018-06-04T07:02:28.219Z,12.37
2018-06-04T07:04:56.495Z,12.07
2018-06-04T07:07:24.794Z,11.90
2018-06-04T07:09:53.074Z,12.00
2018-06-04T07:12:21.370Z,12.53
2018-06-04T07:14:49.645Z,9.53
2018-06-04T07:17:17.955Z,11.50
2018-06-04T07:19:46.239Z,10.53
2018-06-04T07:22:14.535Z,10.50
2018-06-04T07:24:42.809Z,10.87
2018-06-04T07:27:10.881Z,10.80
2018-06-04T07:29:39.175Z,9.80
2018-06-04T07:32:07.463Z,9.43
2018-06-04T07:34:35.735Z,7.70
2018-06-04T07:37:04.040Z,9.40
2018-06-04T07:39:32.336Z,8.63
2018-06-04T07:42:00.594Z,8.70
2018-06-04T07:44:28.921Z,9.07
2018-06-04T07:46:57.222Z,8.60
2018-06-04T07:49:25.546Z,9.23
2018-06-04T07:51:53.817Z,8.80
2018-06-04T07:54:21.878Z,7.23
2018-06-04T07:56:50.190Z,7.77
2018-06-04T07:59:18.547Z,8.23
2018-06-04T08:01:46.810Z,6.53
2018-06-04T08:04:15.136Z,7.30
2018-06-04T08:06:43.411Z,7.33
2018-06-04T08:09:11.743Z,7.30
2018-06-04T08:11:40.605Z,7.13
2018-06-04T08:14:08.885Z,6.47
2018-06-04T08:16:37.167Z,7.40
2018-06-04T08:19:05.478Z,7.60
2018-06-04T08:21:33.809Z,6.73
2018-06-04T08:24:02.151Z,6.80
2018-06-04T08:26:30.398Z,7.33
2018-06-04T08:28:58.714Z,6.87
2018-06-04T08:31:27.010Z,7.67
2018-06-04T08:33:55.305Z,7.90
2018-06-04T08:36:23.566Z,6.40
2018-06-04T08:38:51.859Z,6.83
2018-06-04T08:41:20.135Z,5.63
2018-06-04T08:43:48.427Z,6.23
2018-06-04T08:46:16.705Z,6.27
2018-06-04T08:48:44.996Z,7.10
2018-06-04T08:51:13.275Z,6.80
2018-06-04T08:53:41.590Z,7.47
2018-06-04T08:56:09.859Z,7.03
2018-06-04T08:58:38.768Z,6.73
2018-06-04T09:01:07.073Z,7.00
2018-06-04T09:03:36.645Z,6.90
2018-06-04T09:06:05.866Z,7.00
2018-06-04T09:08:34.147Z,6.53
2018-06-04T09:11:02.457Z,6.80
2018-06-04T09:13:30.746Z,5.77
2018-06-04T09:16:01.707Z,6.50
2018-06-04T09:18:30.019Z,6.13
2018-06-04T09:20:58.406Z,6.70
2018-06-04T09:23:26.679Z,6.60
2018-06-04T09:25:55.037Z,8.07
2018-06-04T09:28:23.302Z,7.20
2018-06-04T09:30:51.607Z,12.67
2018-06-04T09:33:20.515Z,11.80
2018-06-04T09:35:48.564Z,9.30
2018-06-04T09:38:16.859Z,7.13
2018-06-04T09:40:45.155Z,6.50
2018-06-04T09:43:13.437Z,7.67
2018-06-04T09:45:41.846Z,7.10
2018-06-04T09:48:10.146Z,7.40
2018-06-04T09:50:38.433Z,7.60
2018-06-04T09:53:06.477Z,6.60
2018-06-04T09:55:34.768Z,6.67
2018-06-04T09:58:03.066Z,6.60
2018-06-04T10:00:39.173Z,7.40
2018-06-04T10:03:08.023Z,8.13
2018-06-04T10:05:36.354Z,6.30
2018-06-04T10:08:04.643Z,7.70
2018-06-04T10:10:32.944Z,7.40
2018-06-04T10:13:01.218Z,7.37
2018-06-04T10:15:29.530Z,7.30
2018-06-04T10:17:57.585Z,7.03
2018-06-04T10:20:26.187Z,6.87
2018-06-04T10:22:54.574Z,7.23
2018-06-04T10:25:22.846Z,6.40
2018-06-04T10:27:51.191Z,6.93
2018-06-04T10:30:19.522Z,8.33
2018-06-04T10:32:47.878Z,7.13
2018-06-04T10:35:16.170Z,7.53
2018-06-04T10:37:44.446Z,7.00
2018-06-04T10:40:12.750Z,7.10
2018-06-04T10:42:41.060Z,7.10
2018-06-04T10:45:09.329Z,7.33
2018-06-04T10:47:37.622Z,8.43
2018-06-04T10:50:05.899Z,7.40
2018-06-04T10:52:34.189Z,7.57
2018-06-04T10:55:02.472Z,7.50
2018-06-04T10:57:30.803Z,7.17
2018-06-04T10:59:59.132Z,6.90
2018-06-04T11:02:27.426Z,7.03
2018-06-04T11:04:55.740Z,7.67
2018-06-04T11:07:24.038Z,6.60
2018-06-04T11:09:52.313Z,7.13
2018-06-04T11:12:20.590Z,7.80
2018-06-04T11:14:48.882Z,6.80
2018-06-04T11:17:17.181Z,8.00
2018-06-04T11:19:45.465Z,6.93
2018-06-04T11:22:13.754Z,7.50
2018-06-04T11:24:42.034Z,7.43
2018-06-04T11:27:10.442Z,7.70
2018-06-04T11:29:38.732Z,7.33
2018-06-04T11:32:07.055Z,6.90
2018-06-04T11:34:35.331Z,7.33
2018-06-04T11:37:03.629Z,6.83
2018-06-04T11:39:31.981Z,7.40
2018-06-04T11:42:00.351Z,8.00
2018-06-04T11:44:28.657Z,7.07
2018-06-04T11:46:56.931Z,7.70
2018-06-04T11:49:25.218Z,8.83
2018-06-04T11:51:53.479Z,7.33
2018-06-04T11:54:21.795Z,8.37
2018-06-04T11:56:50.082Z,7.70
2018-06-04T11:59:18.399Z,8.03
2018-06-04T12:01:46.732Z,7.50
2018-06-04T12:04:14.994Z,6.90
2018-06-04T12:06:43.273Z,7.23
2018-06-04T12:09:11.562Z,6.83
2018-06-04T12:11:39.846Z,8.37
2018-06-04T12:14:08.153Z,6.87
2018-06-04T12:16:36.413Z,6.90
2018-06-04T12:19:04.758Z,6.70
2018-06-04T12:21:33.038Z,7.43
2018-06-04T12:24:01.334Z,7.33
2018-06-04T12:26:29.590Z,7.57
2018-06-04T12:28:57.886Z,7.40
2018-06-04T12:31:26.162Z,6.70
2018-06-04T12:33:54.459Z,8.10
2018-06-04T12:36:22.714Z,8.10
2018-06-04T12:38:51.010Z,8.27
2018-06-04T12:41:19.280Z,7.50
2018-06-04T12:43:47.597Z,7.80
2018-06-04T12:46:15.875Z,7.80
2018-06-04T12:48:44.180Z,8.23
2018-06-04T12:51:12.478Z,8.67
2018-06-04T12:53:40.881Z,7.63
2018-06-04T12:56:09.202Z,7.27
2018-06-04T12:58:37.493Z,8.60
2018-06-04T13:01:05.813Z,8.53
2018-06-04T13:03:34.079Z,8.00
2018-06-04T13:06:02.393Z,8.33
2018-06-04T13:08:30.713Z,7.50
2018-06-04T13:10:59.015Z,6.67
2018-06-04T13:13:27.312Z,8.47
2018-06-04T13:15:55.623Z,8.00
2018-06-04T13:18:23.893Z,8.37
2018-06-04T13:20:52.186Z,7.57
2018-06-04T13:23:20.486Z,7.93
2018-06-04T13:25:48.774Z,8.20
2018-06-04T13:28:17.033Z,8.23
2018-06-04T13:30:45.355Z,7.40
2018-06-04T13:33:13.629Z,6.23
2018-06-04T13:35:41.920Z,6.37
2018-06-04T13:38:10.210Z,6.23
2018-06-04T13:40:38.509Z,6.90
2018-06-04T13:43:06.791Z,7.10
2018-06-04T13:45:35.078Z,6.80
2018-06-04T13:48:03.358Z,6.57
2018-06-04T13:50:31.658Z,6.37
2018-06-04T13:52:59.940Z,6.77
2018-06-04T13:55:28.226Z,6.30
2018-06-04T13:57:56.499Z,6.80
2018-06-04T14:00:24.793Z,6.27
2018-06-04T14:02:53.058Z,6.40
2018-06-04T14:05:21.338Z,6.00
2018-06-04T14:07:49.627Z,6.70
2018-06-04T14:10:17.916Z,6.50
2018-06-04T14:12:46.177Z,5.73
2018-06-04T14:15:14.489Z,5.40
2018-06-04T14:17:42.755Z,5.83
2018-06-04T14:20:11.014Z,5.80
2018-06-04T14:22:39.322Z,5.57
2018-06-04T14:25:07.584Z,5.57
2018-06-04T14:27:35.903Z,6.17
2018-06-04T14:30:04.325Z,6.00
2018-06-04T14:32:32.654Z,5.93
2018-06-04T14:35:00.921Z,5.70
2018-06-04T14:37:29.201Z,6.90
2018-06-04T14:39:57.478Z,5.83
2018-06-04T14:42:25.857Z,6.40
2018-06-04T14:44:54.131Z,6.03
2018-06-04T14:47:22.445Z,6.93
2018-06-04T14:49:50.716Z,7.13
2018-06-04T14:52:19.005Z,6.50
2018-06-04T14:54:47.294Z,7.27
2018-06-04T14:57:15.577Z,6.47
2018-06-04T14:59:43.869Z,6.33
2018-06-04T15:02:12.170Z,6.50
2018-06-04T15:04:40.453Z,6.77
2018-06-04T15:07:08.734Z,7.00
2018-06-04T15:09:37.010Z,8.33
2018-06-04T15:12:05.067Z,7.70
2018-06-04T15:14:33.342Z,7.97
2018-06-04T15:17:01.647Z,8.03
2018-06-04T15:19:29.917Z,8.27
2018-06-04T15:21:58.201Z,7.53
2018-06-04T15:24:26.482Z,7.50
2018-06-04T15:26:54.770Z,6.43
2018-06-04T15:29:23.054Z,8.07
2018-06-04T15:31:51.361Z,7.80
2018-06-04T15:34:19.648Z,7.63
2018-06-04T15:36:47.921Z,7.17
2018-06-04T15:39:16.236Z,7.20
2018-06-04T15:41:44.501Z,6.30
2018-06-04T15:44:12.784Z,8.50
2018-06-04T15:46:41.098Z,8.17
2018-06-04T15:49:09.389Z,8.00
2018-06-04T15:51:37.663Z,8.00
2018-06-04T15:54:05.954Z,7.10
2018-06-04T15:56:34.230Z,8.23
2018-06-04T15:59:02.556Z,8.70
2018-06-04T16:01:30.825Z,7.80
2018-06-04T16:03:59.125Z,7.40
2018-06-04T16:06:27.394Z,7.30
2018-06-04T16:08:56.035Z,8.07
2018-06-04T16:11:24.306Z,6.83
2018-06-04T16:13:52.595Z,8.13
2018-06-04T16:17:45.389Z,7.70
2018-06-04T16:20:13.662Z,9.60
2018-06-04T16:22:41.945Z,8.77
2018-06-04T16:25:10.231Z,7.60
2018-06-04T16:27:38.521Z,7.37
2018-06-04T16:30:06.577Z,9.40
2018-06-04T16:32:34.851Z,9.07
2018-06-04T16:35:03.142Z,8.30
2018-06-04T16:37:31.517Z,8.90
2018-06-04T16:39:59.952Z,8.80
2018-06-04T16:42:28.447Z,9.00
2018-06-04T16:44:56.817Z,9.20
2018-06-04T16:47:25.030Z,8.77
2018-06-04T16:49:53.337Z,9.10
2018-06-04T16:52:21.619Z,7.77
2018-06-04T16:54:49.922Z,8.17
2018-06-04T16:57:18.210Z,9.57
2018-06-04T16:59:46.563Z,8.13
2018-06-04T17:02:15.257Z,8.03
2018-06-04T17:04:43.567Z,8.27
2018-06-04T17:07:11.834Z,7.63
2018-06-04T17:09:40.161Z,7.87
2018-06-04T17:12:08.429Z,8.50
2018-06-04T17:14:36.722Z,9.23
2018-06-04T17:17:05.057Z,8.13
2018-06-04T17:19:33.348Z,8.83
2018-06-04T17:22:01.610Z,8.60
2018-06-04T17:24:29.901Z,8.23
2018-06-04T17:26:58.161Z,8.70
2018-06-04T17:29:26.461Z,8.30
2018-06-04T17:31:54.496Z,9.00
2018-06-04T17:34:22.905Z,9.47
2018-06-04T17:36:51.189Z,10.00
2018-06-04T17:39:19.487Z,9.10
2018-06-04T17:41:47.756Z,9.03
2018-06-04T17:44:16.041Z,9.83
2018-06-04T17:46:44.329Z,10.63
2018-06-04T17:49:12.617Z,10.90
2018-06-04T17:51:40.985Z,11.47
2018-06-04T17:54:09.269Z,11.20
2018-06-04T17:56:37.557Z,12.53
2018-06-04T17:59:05.869Z,11.40
2018-06-04T18:01:34.217Z,11.50
2018-06-04T18:04:02.246Z,12.37
2018-06-04T18:06:30.301Z,11.63
2018-06-04T18:08:58.343Z,12.97
2018-06-04T18:11:26.396Z,12.67
2018-06-04T18:13:54.448Z,13.20
2018-06-04T18:16:22.755Z,12.27
2018-06-04T18:18:51.045Z,12.97
2018-06-04T18:21:19.341Z,13.60
2018-06-04T18:23:47.623Z,12.80
2018-06-04T18:26:15.935Z,12.40
2018-06-04T18:28:44.218Z,13.63
2018-06-04T18:31:12.517Z,12.77
2018-06-04T18:33:40.828Z,12.43
2018-06-04T18:36:09.145Z,12.80
2018-06-04T18:38:37.417Z,13.10
2018-06-04T18:41:05.718Z,12.30
2018-06-04T18:43:34.110Z,12.83
2018-06-04T18:46:02.398Z,12.90
2018-06-04T18:48:30.673Z,13.10
2018-06-04T18:50:58.973Z,14.53
2018-06-04T18:53:27.257Z,14.27
2018-06-04T18:55:55.591Z,13.60
2018-06-04T18:58:23.654Z,12.97
2018-06-04T19:00:51.995Z,14.63
2018-06-04T19:03:20.050Z,13.67
2018-06-04T19:05:48.334Z,13.97
2018-06-04T19:08:16.630Z,14.40
2018-06-04T19:13:19.503Z,13.43
2018-06-04T19:15:47.797Z,13.77
2018-06-04T19:18:16.081Z,13.70
2018-06-04T19:20:44.350Z,13.70
2018-06-04T19:23:12.402Z,15.30
2018-06-04T19:25:40.674Z,14.20
2018-06-04T19:28:09.074Z,13.50
2018-06-04T19:30:37.354Z,13.53
2018-06-04T19:33:05.674Z,14.20
2018-06-04T19:35:34.013Z,14.43
2018-06-04T19:38:02.523Z,13.80
2018-06-04T19:40:30.860Z,14.83
2018-06-04T19:42:58.912Z,14.40
2018-06-04T19:45:27.186Z,13.67
2018-06-04T19:47:55.504Z,14.57
2018-06-04T19:50:23.832Z,14.10
2018-06-04T19:52:52.154Z,13.50
2018-06-04T19:55:20.425Z,14.57
2018-06-04T19:57:48.775Z,14.60
2018-06-04T20:00:17.078Z,15.03
2018-06-04T20:02:45.380Z,14.27
2018-06-04T20:05:13.654Z,15.50
2018-06-04T20:07:41.946Z,16.07
2018-06-04T20:10:10.231Z,17.50
2018-06-04T20:12:38.552Z,15.27
2018-06-04T20:15:06.826Z,16.37
2018-06-04T20:17:35.187Z,15.93
2018-06-04T20:20:03.482Z,17.00
2018-06-04T20:22:31.749Z,16.00
2018-06-04T20:25:00.041Z,15.30
2018-06-04T20:27:28.317Z,16.00
2018-06-04T20:29:56.597Z,15.37
2018-06-04T20:32:25.010Z,15.67
2018-06-04T20:34:53.310Z,15.87
2018-06-04T20:37:21.580Z,15.40
2018-06-04T20:39:49.882Z,15.87
2018-06-04T20:42:18.153Z,16.33
2018-06-04T20:44:46.473Z,17.23
2018-06-04T20:47:14.750Z,18.13
2018-06-04T20:49:43.055Z,17.10
2018-06-04T20:52:11.325Z,17.20
2018-06-04T20:54:39.626Z,16.57
2018-06-04T20:57:07.910Z,15.50
2018-06-04T20:59:36.249Z,15.83
2018-06-04T21:02:04.567Z,14.73
2018-06-04T21:04:32.873Z,16.50
2018-06-04T21:07:01.145Z,17.50
2018-06-04T21:09:29.438Z,17.80
2018-06-04T21:11:57.721Z,19.43
2018-06-04T21:14:26.006Z,19.60
2018-06-04T21:16:54.303Z,18.83
2018-06-04T21:19:22.589Z,20.00
2018-06-04T21:21:50.905Z,18.40
2018-06-04T21:24:19.193Z,17.80
2018-06-04T21:26:47.517Z,20.37
2018-06-04T21:29:15.801Z,17.80
2018-06-04T21:31:44.070Z,17.17
2018-06-04T21:34:12.369Z,17.50
2018-06-04T21:36:40.665Z,18.50
2018-06-04T21:39:08.974Z,16.73
2018-06-04T21:41:37.238Z,18.30
2018-06-04T21:44:05.567Z,18.50
2018-06-04T21:46:33.854Z,17.33
2018-06-04T21:49:02.162Z,17.83
2018-06-04T21:51:30.434Z,16.43
2018-06-04T21:53:58.717Z,19.23
2018-06-04T21:56:27.044Z,17.80
2018-06-04T21:58:55.338Z,20.70
2018-06-04T22:01:24.463Z,20.63
2018-06-04T22:03:52.794Z,18.77
2018-06-04T22:06:21.133Z,17.40
2018-06-04T22:08:49.405Z,19.40
2018-06-04T22:11:17.832Z,19.77
2018-06-04T22:13:46.099Z,20.30
2018-06-04T22:16:14.394Z,19.60
2018-06-04T22:18:42.681Z,20.00
2018-06-04T22:21:10.965Z,21.07
2018-06-04T22:23:38.996Z,19.97
2018-06-04T22:26:07.289Z,21.03
2018-06-04T22:28:35.560Z,22.40
2018-06-04T22:31:03.615Z,22.87
2018-06-04T22:33:31.880Z,22.10
2018-06-04T22:36:00.195Z,23.63
2018-06-04T22:38:28.473Z,23.50
2018-06-04T22:40:56.777Z,23.43
2018-06-04T22:43:25.042Z,24.57
2018-06-04T22:45:53.341Z,23.90
2018-06-04T22:48:21.618Z,23.10
2018-06-04T22:50:49.912Z,24.03
2018-06-04T22:53:18.182Z,24.13
2018-06-04T22:55:46.493Z,23.43
2018-06-04T22:58:14.779Z,23.03
2018-06-04T23:00:43.084Z,22.40
2018-06-04T23:03:11.356Z,23.47
2018-06-04T23:05:39.626Z,22.10
2018-06-04T23:08:07.931Z,22.97
2018-06-04T23:10:36.209Z,23.43
2018-06-04T23:13:04.487Z,23.00
2018-06-04T23:15:32.749Z,23.93
2018-06-04T23:18:01.038Z,22.17
2018-06-04T23:20:29.295Z,26.43
2018-06-04T23:22:57.572Z,25.77
2018-06-04T23:25:26.805Z,25.83
2018-06-04T23:27:55.077Z,27.47
2018-06-04T23:30:23.337Z,26.53
2018-06-04T23:32:51.641Z,26.70
2018-06-04T23:35:19.897Z,28.60
2018-06-04T23:37:48.166Z,28.50
2018-06-04T23:40:16.441Z,27.43
2018-06-04T23:42:44.725Z,27.10
2018-06-04T23:45:13.000Z,29.50
2018-06-04T23:47:41.307Z,28.73
2018-06-04T23:50:09.579Z,26.70
2018-06-04T23:52:37.853Z,27.07
2018-06-04T23:55:06.115Z,24.50
2018-06-04T23:57:34.398Z,26.53
